Darstellungsparameter: Aktuell verwendete Einstellungen:
Skalierung der Graphiken ... ?
xyx+y,   Skalierungsfaktor:      Skalierung: Modus: x, Faktor: 1
Darstellungszeitraum ... ?
Vom - - bis: - -   Zeitraum: 31.01.2021 - 31.01.2021
Min/Max/Avg-Anzeige ... ?
Zeige MMA aktuell
Zeige MMA Monat
Zeige MMA alles
Zeige --A aktuell
Zeige --A Monat
Zeige --A alles
Keine MMA-Anzeige
MMA:
Minimum Maximum Average (ber die Originaldaten)
MMA-Basis: 23.03.2019 - 25.04.2019
Quicknavigation für Darstellung... ?
Tage:      1T, 2T, 3T, 5T -1T -2T -3T -5T +1T +2T +3T +5T
Wochen: 1W, 2W, 3W -1W -2W -3W +1W +2W +3W
Monate: 1M, 3M, 6M -1M -3M -6M +1M +3M +6M
Jahre:    1J, 3J, 5J, 10J -1J -3J -5J -10J +1J +3J +5J +10J
Nutze für die Darstellung ... ?
Originaldaten oder Mittelwerte auf ...
Stundenbasis Tagesbasis Wochenbasis
Monatsbasis Jahresbasis      Datenbasis: Original-Daten
Darstellen als:
Statistik (Auto) Statistik J:M      Darstellung:
Zur Graphik,    zurück zur Übersicht aller Sensoren.
 
Tabellarische Datenbersicht: ?
 
Sensor: Nr:Datum:Temp:Abs-Feuchte:Windchill:Wind:
Aussen-T/F 1 31-01-2021 00:00:00 0.9 C 4.95 g/m*3 0.9 C 3.2 km/h
2 31-01-2021 00:05:00 0.9 C 4.9 g/m*3 0.9 C 4.8 km/h
3 31-01-2021 00:10:00 0.9 C 4.9 g/m*3 0.9 C 1.6 km/h
4 31-01-2021 00:15:00 0.9 C 4.9 g/m*3 0.9 C 3.2 km/h
5 31-01-2021 00:20:00 0.9 C 4.9 g/m*3 0.9 C 1.6 km/h
6 31-01-2021 00:25:00 0.8 C 4.86 g/m*3 -1.83 C 8.1 km/h
7 31-01-2021 00:30:00 0.8 C 4.86 g/m*3 0.8 C 1.6 km/h
8 31-01-2021 00:35:00 0.8 C 4.86 g/m*3 0.8 C 1.6 km/h
9 31-01-2021 00:40:00 0.8 C 4.86 g/m*3 0.8 C 0 km/h
10 31-01-2021 00:45:00 0.8 C 4.86 g/m*3 0.8 C 0 km/h
11 31-01-2021 00:50:00 0.8 C 4.86 g/m*3 0.8 C 1.6 km/h
12 31-01-2021 00:55:00 0.8 C 4.86 g/m*3 0.8 C 0 km/h
13 31-01-2021 01:00:00 0.8 C 4.86 g/m*3 0.8 C 0 km/h
14 31-01-2021 01:05:00 0.8 C 4.86 g/m*3 -1.83 C 8.1 km/h
15 31-01-2021 01:10:00 0.8 C 4.86 g/m*3 0.8 C 1.6 km/h
16 31-01-2021 01:15:00 0.8 C 4.86 g/m*3 0.8 C 1.6 km/h
17 31-01-2021 01:20:00 0.8 C 4.86 g/m*3 0.8 C 1.6 km/h
18 31-01-2021 01:25:00 0.8 C 4.86 g/m*3 0.8 C 1.6 km/h
19 31-01-2021 01:30:00 0.8 C 4.86 g/m*3 -1.26 C 6.4 km/h
20 31-01-2021 01:35:00 0.8 C 4.86 g/m*3 0.8 C 3.2 km/h
21 31-01-2021 01:40:00 0.7 C 4.83 g/m*3 0.7 C 3.2 km/h
22 31-01-2021 01:45:00 0.7 C 4.83 g/m*3 0.7 C 4.8 km/h
23 31-01-2021 01:50:00 0.8 C 4.86 g/m*3 0.8 C 1.6 km/h
24 31-01-2021 01:55:00 0.8 C 4.86 g/m*3 0.8 C 1.6 km/h
25 31-01-2021 02:00:00 0.7 C 4.83 g/m*3 0.7 C 3.2 km/h
Sensor: Nr:Datum:Temp:Abs-Feuchte:Windchill:Wind:
Aussen-T/F 26 31-01-2021 02:05:00 0.7 C 4.83 g/m*3 0.7 C 1.6 km/h
27 31-01-2021 02:10:00 0.7 C 4.83 g/m*3 0.7 C 0 km/h
28 31-01-2021 02:15:00 0.7 C 4.83 g/m*3 0.7 C 1.6 km/h
29 31-01-2021 02:20:00 0.7 C 4.83 g/m*3 0.7 C 0 km/h
30 31-01-2021 02:25:00 0.7 C 4.83 g/m*3 0.7 C 0 km/h
31 31-01-2021 02:30:00 0.7 C 4.83 g/m*3 0.7 C 3.2 km/h
32 31-01-2021 02:35:00 0.7 C 4.83 g/m*3 0.7 C 0 km/h
33 31-01-2021 02:40:00 0.7 C 4.83 g/m*3 0.7 C 0 km/h
34 31-01-2021 02:45:00 0.7 C 4.78 g/m*3 0.7 C 0 km/h
35 31-01-2021 02:50:00 0.7 C 4.78 g/m*3 0.7 C 4.8 km/h
36 31-01-2021 02:55:00 0.7 C 4.78 g/m*3 0.7 C 3.2 km/h
37 31-01-2021 03:00:00 0.7 C 4.78 g/m*3 0.7 C 0 km/h
38 31-01-2021 03:05:00 0.7 C 4.78 g/m*3 0.7 C 3.2 km/h
39 31-01-2021 03:10:00 0.7 C 4.78 g/m*3 0.7 C 1.6 km/h
40 31-01-2021 03:15:00 0.6 C 4.75 g/m*3 0.6 C 0 km/h
41 31-01-2021 03:20:00 0.6 C 4.75 g/m*3 0.6 C 0 km/h
42 31-01-2021 03:25:00 0.6 C 4.75 g/m*3 0.6 C 3.2 km/h
43 31-01-2021 03:30:00 0.5 C 4.71 g/m*3 -2.18 C 8.1 km/h
44 31-01-2021 03:35:00 0.6 C 4.7 g/m*3 -2.92 C 11.3 km/h
45 31-01-2021 03:40:00 0.6 C 4.7 g/m*3 0.6 C 0 km/h
46 31-01-2021 03:45:00 0.6 C 4.75 g/m*3 0.6 C 0 km/h
47 31-01-2021 03:50:00 0.6 C 4.75 g/m*3 0.6 C 0 km/h
48 31-01-2021 03:55:00 0.6 C 4.75 g/m*3 0.6 C 0 km/h
49 31-01-2021 04:00:00 0.6 C 4.75 g/m*3 0.6 C 0 km/h
50 31-01-2021 04:05:00 0.6 C 4.75 g/m*3 0.6 C 0 km/h
Sensor: Nr:Datum:Temp:Abs-Feuchte:Windchill:Wind:
Aussen-T/F 51 31-01-2021 04:10:00 0.5 C 4.66 g/m*3 0.5 C 1.6 km/h
52 31-01-2021 04:15:00 0.5 C 4.66 g/m*3 0.5 C 4.8 km/h
53 31-01-2021 04:20:00 0.5 C 4.66 g/m*3 0.5 C 0 km/h
54 31-01-2021 04:25:00 0.5 C 4.66 g/m*3 0.5 C 0 km/h
55 31-01-2021 04:30:00 0.5 C 4.66 g/m*3 0.5 C 0 km/h
56 31-01-2021 04:35:00 0.5 C 4.66 g/m*3 0.5 C 0 km/h
57 31-01-2021 04:40:00 0.4 C 4.63 g/m*3 0.4 C 4.8 km/h
58 31-01-2021 04:45:00 0.4 C 4.63 g/m*3 0.4 C 3.2 km/h
59 31-01-2021 04:50:00 0.4 C 4.63 g/m*3 0.4 C 3.2 km/h
60 31-01-2021 04:55:00 0.4 C 4.63 g/m*3 0.4 C 1.6 km/h
61 31-01-2021 05:00:00 0.4 C 4.63 g/m*3 0.4 C 1.6 km/h
62 31-01-2021 05:05:00 0.4 C 4.63 g/m*3 -2.76 C 9.7 km/h
63 31-01-2021 05:10:00 0.4 C 4.58 g/m*3 -2.76 C 9.7 km/h
64 31-01-2021 05:15:00 0.4 C 4.63 g/m*3 0.4 C 3.2 km/h
65 31-01-2021 05:20:00 0.4 C 4.58 g/m*3 0.4 C 1.6 km/h
66 31-01-2021 05:25:00 0.4 C 4.58 g/m*3 0.4 C 3.2 km/h
67 31-01-2021 05:30:00 0.3 C 4.55 g/m*3 -2.88 C 9.7 km/h
68 31-01-2021 05:35:00 0.3 C 4.55 g/m*3 -2.42 C 8.1 km/h
69 31-01-2021 05:40:00 0.3 C 4.5 g/m*3 -3.63 C 12.9 km/h
70 31-01-2021 05:45:00 0.3 C 4.5 g/m*3 0.3 C 4.8 km/h
71 31-01-2021 05:50:00 0.3 C 4.5 g/m*3 -2.88 C 9.7 km/h
72 31-01-2021 05:55:00 0.3 C 4.5 g/m*3 -1.84 C 6.4 km/h
73 31-01-2021 06:00:00 0.3 C 4.5 g/m*3 -2.88 C 9.7 km/h
74 31-01-2021 06:05:00 0.3 C 4.5 g/m*3 0.3 C 3.2 km/h
75 31-01-2021 06:10:00 0.3 C 4.5 g/m*3 0.3 C 0 km/h
Sensor: Nr:Datum:Temp:Abs-Feuchte:Windchill:Wind:
Aussen-T/F 76 31-01-2021 06:15:00 0.2 C 4.47 g/m*3 -1.95 C 6.4 km/h
77 31-01-2021 06:20:00 0.2 C 4.42 g/m*3 0.2 C 4.8 km/h
78 31-01-2021 06:25:00 0.2 C 4.47 g/m*3 0.2 C 3.2 km/h
79 31-01-2021 06:30:00 0.2 C 4.42 g/m*3 0.2 C 1.6 km/h
80 31-01-2021 06:35:00 0.2 C 4.42 g/m*3 -3.4 C 11.3 km/h
81 31-01-2021 06:40:00 0.2 C 4.42 g/m*3 -2.53 C 8.1 km/h
82 31-01-2021 06:45:00 0.3 C 4.45 g/m*3 0.3 C 4.8 km/h
83 31-01-2021 06:50:00 0.3 C 4.45 g/m*3 -1.84 C 6.4 km/h
84 31-01-2021 06:55:00 0.2 C 4.42 g/m*3 -3.4 C 11.3 km/h
85 31-01-2021 07:00:00 0.2 C 4.37 g/m*3 -1.95 C 6.4 km/h
86 31-01-2021 07:05:00 0.2 C 4.37 g/m*3 0.2 C 4.8 km/h
87 31-01-2021 07:10:00 0.2 C 4.37 g/m*3 -1.95 C 6.4 km/h
88 31-01-2021 07:15:00 0.2 C 4.37 g/m*3 0.2 C 4.8 km/h
89 31-01-2021 07:20:00 0.2 C 4.37 g/m*3 -3 C 9.7 km/h
90 31-01-2021 07:25:00 0.2 C 4.37 g/m*3 -2.53 C 8.1 km/h
91 31-01-2021 07:30:00 0.2 C 4.42 g/m*3 0.2 C 1.6 km/h
92 31-01-2021 07:35:00 0.2 C 4.37 g/m*3 -1.95 C 6.4 km/h
93 31-01-2021 07:40:00 0.2 C 4.37 g/m*3 -1.95 C 6.4 km/h
94 31-01-2021 07:45:00 0.2 C 4.37 g/m*3 0.2 C 4.8 km/h
95 31-01-2021 07:50:00 0.2 C 4.37 g/m*3 0.2 C 3.2 km/h
96 31-01-2021 07:55:00 0.2 C 4.37 g/m*3 0.2 C 4.8 km/h
97 31-01-2021 08:00:00 0.2 C 4.37 g/m*3 -2.53 C 8.1 km/h
98 31-01-2021 08:05:00 0.2 C 4.37 g/m*3 -1.95 C 6.4 km/h
99 31-01-2021 08:10:00 0.2 C 4.37 g/m*3 0.2 C 4.8 km/h
100 31-01-2021 08:15:00 0.2 C 4.37 g/m*3 0.2 C 3.2 km/h
Sensor: Nr:Datum:Temp:Abs-Feuchte:Windchill:Wind:
Aussen-T/F 101 31-01-2021 08:20:00 0.2 C 4.37 g/m*3 0.2 C 3.2 km/h
102 31-01-2021 08:25:00 0.2 C 4.37 g/m*3 -1.95 C 6.4 km/h
103 31-01-2021 08:30:00 0.2 C 4.37 g/m*3 0.2 C 1.6 km/h
104 31-01-2021 08:35:00 0.2 C 4.37 g/m*3 0.2 C 4.8 km/h
105 31-01-2021 08:40:00 0.1 C 4.34 g/m*3 -2.07 C 6.4 km/h
106 31-01-2021 08:45:00 0.1 C 4.34 g/m*3 0.1 C 1.6 km/h
107 31-01-2021 08:50:00 0.1 C 4.34 g/m*3 -2.65 C 8.1 km/h
108 31-01-2021 08:55:00 0.2 C 4.37 g/m*3 0.2 C 0 km/h
109 31-01-2021 09:00:00 0.2 C 4.42 g/m*3 0.2 C 0 km/h
110 31-01-2021 09:05:00 0.2 C 4.42 g/m*3 0.2 C 0 km/h
111 31-01-2021 09:10:00 0.2 C 4.42 g/m*3 0.2 C 0 km/h
112 31-01-2021 09:15:00 0.2 C 4.37 g/m*3 0.2 C 3.2 km/h
113 31-01-2021 09:20:00 0.2 C 4.37 g/m*3 0.2 C 4.8 km/h
114 31-01-2021 09:25:00 0.2 C 4.42 g/m*3 0.2 C 3.2 km/h
115 31-01-2021 09:30:00 0.3 C 4.4 g/m*3 0.3 C 4.8 km/h
116 31-01-2021 09:35:00 0.3 C 4.45 g/m*3 0.3 C 0 km/h
117 31-01-2021 09:40:00 0.3 C 4.4 g/m*3 0.3 C 1.6 km/h
118 31-01-2021 09:45:00 0.3 C 4.4 g/m*3 0.3 C 3.2 km/h
119 31-01-2021 09:50:00 0.3 C 4.4 g/m*3 0.3 C 3.2 km/h
120 31-01-2021 09:55:00 0.4 C 4.43 g/m*3 0.4 C 1.6 km/h
121 31-01-2021 10:00:00 0.4 C 4.43 g/m*3 0.4 C 3.2 km/h
122 31-01-2021 10:05:00 0.4 C 4.43 g/m*3 0.4 C 4.8 km/h
123 31-01-2021 10:10:00 0.4 C 4.43 g/m*3 0.4 C 3.2 km/h
124 31-01-2021 10:15:00 0.4 C 4.38 g/m*3 -1.72 C 6.4 km/h
125 31-01-2021 10:20:00 0.5 C 4.41 g/m*3 -2.18 C 8.1 km/h
Sensor: Nr:Datum:Temp:Abs-Feuchte:Windchill:Wind:
Aussen-T/F 126 31-01-2021 10:25:00 0.5 C 4.46 g/m*3 -1.6 C 6.4 km/h
127 31-01-2021 10:30:00 0.6 C 4.44 g/m*3 0.6 C 1.6 km/h
128 31-01-2021 10:35:00 0.6 C 4.44 g/m*3 0.6 C 4.8 km/h
129 31-01-2021 10:40:00 0.7 C 4.47 g/m*3 -1.37 C 6.4 km/h
130 31-01-2021 10:45:00 0.6 C 4.34 g/m*3 -3.27 C 12.9 km/h
131 31-01-2021 10:50:00 0.6 C 4.39 g/m*3 -1.49 C 6.4 km/h
132 31-01-2021 10:55:00 0.6 C 4.39 g/m*3 0.6 C 4.8 km/h
133 31-01-2021 11:00:00 0.7 C 4.42 g/m*3 -2.8 C 11.3 km/h
134 31-01-2021 11:05:00 0.7 C 4.42 g/m*3 -2.4 C 9.7 km/h
135 31-01-2021 11:10:00 0.7 C 4.42 g/m*3 -1.37 C 6.4 km/h
136 31-01-2021 11:15:00 0.8 C 4.45 g/m*3 -1.26 C 6.4 km/h
137 31-01-2021 11:20:00 0.8 C 4.45 g/m*3 0.8 C 4.8 km/h
138 31-01-2021 11:25:00 0.8 C 4.51 g/m*3 0.8 C 3.2 km/h
139 31-01-2021 11:30:00 0.9 C 4.54 g/m*3 -2.55 C 11.3 km/h
140 31-01-2021 11:35:00 0.9 C 4.48 g/m*3 0.9 C 4.8 km/h
141 31-01-2021 11:40:00 1 C 4.52 g/m*3 -2.04 C 9.7 km/h
142 31-01-2021 11:45:00 1.1 C 4.6 g/m*3 -0.91 C 6.4 km/h
143 31-01-2021 11:50:00 1.1 C 4.55 g/m*3 1.1 C 3.2 km/h
144 31-01-2021 11:55:00 1.1 C 4.55 g/m*3 -1.48 C 8.1 km/h
145 31-01-2021 12:00:00 1.1 C 4.55 g/m*3 -1.48 C 8.1 km/h
146 31-01-2021 12:05:00 1.2 C 4.58 g/m*3 1.2 C 3.2 km/h
147 31-01-2021 12:10:00 1.2 C 4.58 g/m*3 -1.36 C 8.1 km/h
148 31-01-2021 12:15:00 1.3 C 4.61 g/m*3 1.3 C 4.8 km/h
149 31-01-2021 12:20:00 1.3 C 4.61 g/m*3 1.3 C 3.2 km/h
150 31-01-2021 12:25:00 1.3 C 4.61 g/m*3 1.3 C 4.8 km/h
Sensor: Nr:Datum:Temp:Abs-Feuchte:Windchill:Wind:
Aussen-T/F 151 31-01-2021 12:30:00 1.3 C 4.61 g/m*3 -1.24 C 8.1 km/h
152 31-01-2021 12:35:00 1.3 C 4.56 g/m*3 -0.68 C 6.4 km/h
153 31-01-2021 12:40:00 1.3 C 4.61 g/m*3 1.3 C 4.8 km/h
154 31-01-2021 12:45:00 1.4 C 4.64 g/m*3 1.4 C 3.2 km/h
155 31-01-2021 12:50:00 1.4 C 4.64 g/m*3 1.4 C 4.8 km/h
156 31-01-2021 12:55:00 1.5 C 4.67 g/m*3 -0.45 C 6.4 km/h
157 31-01-2021 13:00:00 1.5 C 4.67 g/m*3 -1.83 C 11.3 km/h
158 31-01-2021 13:05:00 1.5 C 4.67 g/m*3 -1.01 C 8.1 km/h
159 31-01-2021 13:10:00 1.5 C 4.67 g/m*3 1.5 C 4.8 km/h
160 31-01-2021 13:15:00 1.6 C 4.7 g/m*3 1.6 C 4.8 km/h
161 31-01-2021 13:20:00 1.6 C 4.7 g/m*3 1.6 C 3.2 km/h
162 31-01-2021 13:25:00 1.6 C 4.7 g/m*3 -0.33 C 6.4 km/h
163 31-01-2021 13:30:00 1.6 C 4.7 g/m*3 -0.33 C 6.4 km/h
164 31-01-2021 13:35:00 1.4 C 4.64 g/m*3 -1.12 C 8.1 km/h
165 31-01-2021 13:40:00 1.4 C 4.64 g/m*3 -0.56 C 6.4 km/h
166 31-01-2021 13:45:00 1.4 C 4.64 g/m*3 -1.95 C 11.3 km/h
167 31-01-2021 13:50:00 1.3 C 4.61 g/m*3 -2.07 C 11.3 km/h
168 31-01-2021 13:55:00 1.4 C 4.64 g/m*3 1.4 C 4.8 km/h
169 31-01-2021 14:00:00 1.4 C 4.64 g/m*3 -1.95 C 11.3 km/h
170 31-01-2021 14:05:00 1.4 C 4.64 g/m*3 -1.57 C 9.7 km/h
171 31-01-2021 14:10:00 1.5 C 4.73 g/m*3 -1.83 C 11.3 km/h
172 31-01-2021 14:15:00 1.5 C 4.73 g/m*3 -0.45 C 6.4 km/h
173 31-01-2021 14:20:00 1.6 C 4.76 g/m*3 -0.33 C 6.4 km/h
174 31-01-2021 14:25:00 1.5 C 4.67 g/m*3 -1.83 C 11.3 km/h
175 31-01-2021 14:30:00 1.6 C 4.76 g/m*3 -1.33 C 9.7 km/h
Sensor: Nr:Datum:Temp:Abs-Feuchte:Windchill:Wind:
Aussen-T/F 176 31-01-2021 14:35:00 1.6 C 4.76 g/m*3 1.6 C 1.6 km/h
177 31-01-2021 14:40:00 1.6 C 4.76 g/m*3 -0.33 C 6.4 km/h
178 31-01-2021 14:45:00 1.6 C 4.76 g/m*3 -1.33 C 9.7 km/h
179 31-01-2021 14:50:00 1.6 C 4.76 g/m*3 1.6 C 3.2 km/h
180 31-01-2021 14:55:00 1.6 C 4.76 g/m*3 1.6 C 1.6 km/h
181 31-01-2021 15:00:00 1.6 C 4.76 g/m*3 1.6 C 1.6 km/h
182 31-01-2021 15:05:00 1.7 C 4.79 g/m*3 1.7 C 4.8 km/h
183 31-01-2021 15:10:00 1.7 C 4.79 g/m*3 1.7 C 3.2 km/h
184 31-01-2021 15:15:00 1.7 C 4.79 g/m*3 1.7 C 0 km/h
185 31-01-2021 15:20:00 1.7 C 4.79 g/m*3 1.7 C 1.6 km/h
186 31-01-2021 15:25:00 1.7 C 4.79 g/m*3 1.7 C 3.2 km/h
187 31-01-2021 15:30:00 1.7 C 4.79 g/m*3 -0.22 C 6.4 km/h
188 31-01-2021 15:35:00 1.7 C 4.79 g/m*3 1.7 C 3.2 km/h
189 31-01-2021 15:40:00 1.7 C 4.85 g/m*3 1.7 C 1.6 km/h
190 31-01-2021 15:45:00 1.7 C 4.85 g/m*3 1.7 C 1.6 km/h
191 31-01-2021 15:50:00 1.7 C 4.85 g/m*3 1.7 C 0 km/h
192 31-01-2021 15:55:00 1.6 C 4.81 g/m*3 1.6 C 1.6 km/h
193 31-01-2021 16:00:00 1.6 C 4.81 g/m*3 -0.33 C 6.4 km/h
194 31-01-2021 16:05:00 1.6 C 4.81 g/m*3 1.6 C 4.8 km/h
195 31-01-2021 16:10:00 1.6 C 4.81 g/m*3 1.6 C 0 km/h
196 31-01-2021 16:15:00 1.6 C 4.81 g/m*3 1.6 C 4.8 km/h
197 31-01-2021 16:20:00 1.7 C 4.9 g/m*3 1.7 C 1.6 km/h
198 31-01-2021 16:25:00 1.7 C 4.9 g/m*3 1.7 C 0 km/h
199 31-01-2021 16:30:00 1.7 C 4.9 g/m*3 1.7 C 0 km/h
200 31-01-2021 16:35:00 1.7 C 4.9 g/m*3 1.7 C 0 km/h
Sensor: Nr:Datum:Temp:Abs-Feuchte:Windchill:Wind:
Aussen-T/F 201 31-01-2021 16:40:00 1.7 C 4.9 g/m*3 1.7 C 4.8 km/h
202 31-01-2021 16:45:00 1.7 C 4.9 g/m*3 1.7 C 4.8 km/h
203 31-01-2021 16:50:00 1.7 C 4.9 g/m*3 1.7 C 0 km/h
204 31-01-2021 16:55:00 1.7 C 4.9 g/m*3 1.7 C 1.6 km/h
205 31-01-2021 17:00:00 1.7 C 4.95 g/m*3 1.7 C 0 km/h
206 31-01-2021 17:05:00 1.7 C 4.95 g/m*3 1.7 C 0 km/h
207 31-01-2021 17:10:00 1.7 C 4.95 g/m*3 1.7 C 0 km/h
208 31-01-2021 17:15:00 1.7 C 4.95 g/m*3 1.7 C 0 km/h
209 31-01-2021 17:20:00 1.6 C 4.92 g/m*3 1.6 C 0 km/h
210 31-01-2021 17:25:00 1.6 C 4.92 g/m*3 1.6 C 0 km/h
211 31-01-2021 17:30:00 1.6 C 4.97 g/m*3 1.6 C 1.6 km/h
212 31-01-2021 17:35:00 1.6 C 4.97 g/m*3 1.6 C 0 km/h
213 31-01-2021 17:40:00 1.6 C 4.97 g/m*3 1.6 C 0 km/h
214 31-01-2021 17:45:00 1.6 C 4.97 g/m*3 1.6 C 0 km/h
215 31-01-2021 17:50:00 1.6 C 4.97 g/m*3 1.6 C 0 km/h
216 31-01-2021 17:55:00 1.5 C 4.94 g/m*3 1.5 C 0 km/h
217 31-01-2021 18:00:00 1.5 C 4.94 g/m*3 1.5 C 0 km/h
218 31-01-2021 18:05:00 1.5 C 4.94 g/m*3 1.5 C 0 km/h
219 31-01-2021 18:10:00 1.5 C 4.94 g/m*3 1.5 C 0 km/h
220 31-01-2021 18:15:00 1.4 C 4.96 g/m*3 1.4 C 0 km/h
221 31-01-2021 18:20:00 1.4 C 4.96 g/m*3 1.4 C 0 km/h
222 31-01-2021 18:25:00 1.4 C 4.96 g/m*3 1.4 C 0 km/h
223 31-01-2021 18:30:00 1.4 C 4.96 g/m*3 1.4 C 0 km/h
224 31-01-2021 18:35:00 1.4 C 4.96 g/m*3 1.4 C 0 km/h
225 31-01-2021 18:40:00 1.4 C 4.96 g/m*3 1.4 C 0 km/h
Sensor: Nr:Datum:Temp:Abs-Feuchte:Windchill:Wind:
Aussen-T/F 226 31-01-2021 18:45:00 1.4 C 4.96 g/m*3 1.4 C 0 km/h
227 31-01-2021 18:50:00 1.4 C 4.96 g/m*3 1.4 C 0 km/h
228 31-01-2021 18:55:00 1.4 C 4.96 g/m*3 1.4 C 0 km/h
229 31-01-2021 19:00:00 1.4 C 4.96 g/m*3 1.4 C 0 km/h
230 31-01-2021 19:05:00 1.4 C 4.96 g/m*3 1.4 C 0 km/h
231 31-01-2021 19:10:00 1.4 C 4.96 g/m*3 1.4 C 0 km/h
232 31-01-2021 19:15:00 1.4 C 4.96 g/m*3 1.4 C 0 km/h
233 31-01-2021 19:20:00 1.4 C 4.96 g/m*3 1.4 C 0 km/h
234 31-01-2021 19:25:00 1.4 C 4.96 g/m*3 1.4 C 0 km/h
235 31-01-2021 19:30:00 1.4 C 5.01 g/m*3 1.4 C 0 km/h
236 31-01-2021 19:35:00 1.4 C 5.01 g/m*3 1.4 C 0 km/h
237 31-01-2021 19:40:00 1.4 C 5.01 g/m*3 1.4 C 0 km/h
238 31-01-2021 19:45:00 1.4 C 5.01 g/m*3 1.4 C 0 km/h
239 31-01-2021 19:50:00 1.4 C 5.01 g/m*3 1.4 C 0 km/h
240 31-01-2021 19:55:00 1.4 C 5.01 g/m*3 1.4 C 0 km/h
241 31-01-2021 20:00:00 1.4 C 5.01 g/m*3 1.4 C 0 km/h
242 31-01-2021 20:05:00 1.4 C 5.01 g/m*3 1.4 C 0 km/h
243 31-01-2021 20:10:00 1.5 C 5.05 g/m*3 1.5 C 0 km/h
244 31-01-2021 20:15:00 1.5 C 5.05 g/m*3 1.5 C 0 km/h
245 31-01-2021 20:20:00 1.5 C 5.05 g/m*3 1.5 C 0 km/h
246 31-01-2021 20:25:00 1.5 C 5.05 g/m*3 1.5 C 0 km/h
247 31-01-2021 20:30:00 1.5 C 5.05 g/m*3 1.5 C 0 km/h
248 31-01-2021 20:35:00 1.5 C 5.05 g/m*3 1.5 C 0 km/h
249 31-01-2021 20:40:00 1.4 C 5.01 g/m*3 1.4 C 0 km/h
250 31-01-2021 20:45:00 1.4 C 5.01 g/m*3 1.4 C 0 km/h
Sensor: Nr:Datum:Temp:Abs-Feuchte:Windchill:Wind:
Aussen-T/F 251 31-01-2021 20:50:00 1.4 C 5.01 g/m*3 1.4 C 0 km/h
252 31-01-2021 20:55:00 1.4 C 5.01 g/m*3 1.4 C 0 km/h
253 31-01-2021 21:00:00 1.4 C 5.07 g/m*3 1.4 C 0 km/h
254 31-01-2021 21:05:00 1.4 C 5.07 g/m*3 1.4 C 0 km/h
255 31-01-2021 21:10:00 1.5 C 5.1 g/m*3 1.5 C 0 km/h
256 31-01-2021 21:15:00 1.5 C 5.1 g/m*3 1.5 C 0 km/h
257 31-01-2021 21:20:00 1.5 C 5.1 g/m*3 1.5 C 1.6 km/h
258 31-01-2021 21:25:00 1.6 C 5.14 g/m*3 1.6 C 1.6 km/h
259 31-01-2021 21:30:00 1.6 C 5.14 g/m*3 1.6 C 0 km/h
260 31-01-2021 21:35:00 1.6 C 5.14 g/m*3 1.6 C 0 km/h
261 31-01-2021 21:40:00 1.6 C 5.14 g/m*3 1.6 C 0 km/h
262 31-01-2021 21:45:00 1.6 C 5.14 g/m*3 1.6 C 0 km/h
263 31-01-2021 21:50:00 1.6 C 5.14 g/m*3 1.6 C 0 km/h
264 31-01-2021 21:55:00 1.6 C 5.14 g/m*3 1.6 C 0 km/h
265 31-01-2021 22:00:00 1.6 C 5.14 g/m*3 1.6 C 0 km/h
266 31-01-2021 22:05:00 1.6 C 5.14 g/m*3 1.6 C 0 km/h
267 31-01-2021 22:10:00 1.6 C 5.14 g/m*3 1.6 C 0 km/h
268 31-01-2021 22:15:00 1.6 C 5.14 g/m*3 1.6 C 0 km/h
269 31-01-2021 22:20:00 1.6 C 5.14 g/m*3 1.6 C 0 km/h
270 31-01-2021 22:25:00 1.6 C 5.14 g/m*3 1.6 C 0 km/h
271 31-01-2021 22:30:00 1.6 C 5.14 g/m*3 1.6 C 0 km/h
272 31-01-2021 22:35:00 1.6 C 5.14 g/m*3 1.6 C 0 km/h
273 31-01-2021 22:40:00 1.6 C 5.14 g/m*3 1.6 C 0 km/h
274 31-01-2021 22:45:00 1.6 C 5.14 g/m*3 1.6 C 0 km/h
275 31-01-2021 22:50:00 1.6 C 5.14 g/m*3 1.6 C 0 km/h
Sensor: Nr:Datum:Temp:Abs-Feuchte:Windchill:Wind:
Aussen-T/F 276 31-01-2021 22:55:00 1.6 C 5.14 g/m*3 1.6 C 0 km/h
277 31-01-2021 23:00:00 1.6 C 5.14 g/m*3 1.6 C 0 km/h
278 31-01-2021 23:05:00 1.6 C 5.14 g/m*3 1.6 C 0 km/h
279 31-01-2021 23:10:00 1.6 C 5.14 g/m*3 1.6 C 0 km/h
280 31-01-2021 23:15:00 1.6 C 5.19 g/m*3 1.6 C 0 km/h
281 31-01-2021 23:20:00 1.6 C 5.19 g/m*3 1.6 C 0 km/h
282 31-01-2021 23:25:00 1.6 C 5.19 g/m*3 1.6 C 0 km/h
283 31-01-2021 23:30:00 1.6 C 5.19 g/m*3 1.6 C 0 km/h
284 31-01-2021 23:35:00 1.6 C 5.19 g/m*3 1.6 C 0 km/h
285 31-01-2021 23:40:00 1.6 C 5.19 g/m*3 1.6 C 0 km/h
286 31-01-2021 23:45:00 1.6 C 5.19 g/m*3 1.6 C 0 km/h
287 31-01-2021 23:50:00 1.6 C 5.19 g/m*3 1.6 C 0 km/h
288 31-01-2021 23:55:00 1.6 C 5.19 g/m*3 1.6 C 0 km/h

Legende:
   Min
   Max


Maximal/Minimal-Werte vom 23.03.2019 - 25.04.2019

Sensor Min Max Avg
Temp
(Aussen-T/F)
0.3 °C
14-04-2019  00:50:00
26.6 °C
24-04-2019  17:05:00
9.96 °C

Die Daten stammen von einer Davis Vantage Pro 2 Wetter-Station und werden unter Linux mit der Software wview2wettercgi und aufbereitet. Alle Angaben erfolgen ohne Gewähr für ihre Vollständigkeit oder Richtigkeit.
Kontakt: Rainer Krienke krienke@uni-koblenz.de . Meine Webseiten an der Uni Koblenz oder privat.
Version: $Revision: 0.78 $